Details for LATAM Cargo (Chile) at SCEL




Go Back


Latest METAR
Local Time

SCEL 061900Z 15010KT CAVOK 30/06 Q1014 NOSIG
06/04/2020, 15:06:04

Description
Results
LATAM Cargo (Chile) Logo
Number of Pilots based at SCEL
0 Pilots Based here
Number of LATAM Cargo (Chile) Flights Departed from SCEL
0 Flights Departed
Number of LATAM Cargo (Chile) Flights Arrived at SCEL
0 Flights Arrived
Number of LATAM Cargo (Chile) Schedules Departing from SCEL
9 Schedules
Number of LATAM Cargo (Chile) Schedules Arriving at SCEL
9 Schedules
Number of LATAM Cargo (Chile) Schedules Departing from SCEL availible today
0 Schedules Today
Number of LATAM Cargo (Chile) Schedules Arriving at SCEL availible today
2 Schedules Today
Average Landing Rate at SCEL
-264 fpm
LATAM Cargo (Chile) Average Landing Rate at SCEL
0 fpm
Total Fuel Purchased at SCEL by LATAM Cargo (Chile)
0.00 kgs / 0.00 lbs

Pilots Based at SCEL


Pilot ID
Pilot Name
Pilot Rank
No. of Flights
No. of Flying Hours
There are no pilots assigned to this hub!   Will you be the first?